Anderson, Alaska
Current Conditions -  °F | °C
As of 3:53 PM on Thursday 30 Oct 2014 (Local Time) from PANN Reporting Station
Light Snow Light Snow  
Wind Chill: 15°   Ceiling: 1900
Heat Index: 15°   Visibility: 4mi
Dew Point: 10°   Wind: 3mph
Humidity: 80%   Direction: 260°W
Pressure: 29.7"   Gusts: NA
Location:  64.34°N, 149.19°W
Report Text: PANN 302353Z AUTO 26003KT 4SM -SN OVC019 M09/M12 A2970 RMK AO2 SLP071 P0000 60001 T10941122 11094 21128 58014 TSNO
Loading
Personal Weather Stations






























Interactive Weather Map
Tropical Storm Tracking
New forecast layout! Learn more

10-Day Weather Forecast

Advertisements
Track Severe Weather on mobile